Time;durP1;ratioP1;P1;durP2;ratioP2;P2;SDS_P1;SDS_P2;PMS_P1;PMS_P2;Temp;Humidity;BMP_temperature;BMP_pressure;BME280_temperature;BME280_humidity;BME280_pressure;Samples;Min_cycle;Max_cycle;Signal;HPM_P1;HPM_P2
2024/01/30 00:01:16;;;;;;;27.85;19.50;;;;;;;;;;5029088;28;20046;-80
2024/01/30 00:03:42;;;;;;;30.35;19.77;;;;;;;;;;4995537;28;20476;-80
2024/01/30 00:06:09;;;;;;;26.30;19.15;;;;;;;;;;5028867;28;20099;-80
2024/01/30 00:08:35;;;;;;;27.38;18.85;;;;;;;;;;5029198;28;20052;-80
2024/01/30 00:11:01;;;;;;;29.25;19.13;;;;;;;;;;4996081;28;20783;-80
2024/01/30 00:13:27;;;;;;;25.48;19.27;;;;;;;;;;5029067;28;20508;-80
2024/01/30 00:15:53;;;;;;;27.73;18.92;;;;;;;;;;5018714;28;20077;-80
2024/01/30 00:18:19;;;;;;;29.00;19.70;;;;;;;;;;5012025;28;20140;-80
2024/01/30 00:20:45;;;;;;;32.03;19.25;;;;;;;;;;5023006;28;20052;-80
2024/01/30 00:23:11;;;;;;;30.23;20.65;;;;;;;;;;5012612;28;20820;-80
2024/01/30 00:25:37;;;;;;;27.10;19.48;;;;;;;;;;5028589;28;20141;-80
2024/01/30 00:28:03;;;;;;;27.95;20.27;;;;;;;;;;5029964;28;20115;-80
2024/01/30 00:30:29;;;;;;;27.02;20.90;;;;;;;;;;5028637;28;20136;-80
2024/01/30 00:32:55;;;;;;;26.48;19.55;;;;;;;;;;5028569;28;20439;-80
2024/01/30 00:35:22;;;;;;;27.05;19.70;;;;;;;;;;5010920;28;20064;-79
2024/01/30 00:37:48;;;;;;;26.95;19.88;;;;;;;;;;5028999;28;20120;-80
2024/01/30 00:40:15;;;;;;;26.33;19.25;;;;;;;;;;5028930;28;20515;-80
2024/01/30 00:42:45;;;;;;;26.25;19.38;;;;;;;;;;5027280;28;20103;-80
2024/01/30 00:45:14;;;;;;;27.27;18.92;;;;;;;;;;5010143;28;20042;-80
2024/01/30 00:47:40;;;;;;;28.35;18.88;;;;;;;;;;4994761;28;20045;-80
2024/01/30 00:50:06;;;;;;;25.65;19.83;;;;;;;;;;5011274;28;20103;-80
2024/01/30 00:52:33;;;;;;;26.98;18.90;;;;;;;;;;4995230;28;20098;-80
2024/01/30 00:54:59;;;;;;;27.38;18.65;;;;;;;;;;5010554;28;20045;-79
2024/01/30 00:57:25;;;;;;;23.75;18.65;;;;;;;;;;5028542;28;20065;-80
2024/01/30 00:59:51;;;;;;;27.35;18.85;;;;;;;;;;5028507;28;20049;-80
2024/01/30 01:02:17;;;;;;;26.00;18.88;;;;;;;;;;5014403;28;20056;-80
2024/01/30 01:04:44;;;;;;;24.88;18.35;;;;;;;;;;5008814;28;20111;-79
2024/01/30 01:07:10;;;;;;;25.83;18.52;;;;;;;;;;5027559;28;20542;-80
2024/01/30 01:09:36;;;;;;;27.02;18.65;;;;;;;;;;5010619;28;20067;-80
2024/01/30 01:12:02;;;;;;;25.63;18.55;;;;;;;;;;5027866;28;20092;-80
2024/01/30 01:14:28;;;;;;;23.80;18.20;;;;;;;;;;5010886;28;20470;-80
2024/01/30 01:16:54;;;;;;;29.05;19.05;;;;;;;;;;5014164;28;20045;-80
2024/01/30 01:19:20;;;;;;;27.90;18.27;;;;;;;;;;5029040;28;20125;-80
2024/01/30 01:21:46;;;;;;;24.98;18.45;;;;;;;;;;5028117;28;20077;-80
2024/01/30 01:24:13;;;;;;;30.83;18.00;;;;;;;;;;5029015;28;20049;-80
2024/01/30 01:26:39;;;;;;;27.23;18.67;;;;;;;;;;5027920;28;20128;-80
2024/01/30 01:29:09;;;;;;;29.00;18.73;;;;;;;;;;5010673;28;20526;-80
2024/01/30 01:31:39;;;;;;;26.33;17.73;;;;;;;;;;5015013;28;20053;-80
2024/01/30 01:34:06;;;;;;;26.38;17.98;;;;;;;;;;5027952;28;20129;-80
2024/01/30 01:36:32;;;;;;;23.20;17.50;;;;;;;;;;5027892;28;20048;-80
2024/01/30 01:38:58;;;;;;;24.45;17.95;;;;;;;;;;5027813;28;20553;-79
2024/01/30 01:41:24;;;;;;;25.50;18.08;;;;;;;;;;5014209;28;20937;-80
2024/01/30 01:43:50;;;;;;;26.38;16.98;;;;;;;;;;5006981;28;20439;-80
2024/01/30 01:46:16;;;;;;;26.55;17.73;;;;;;;;;;5028058;28;20045;-80
2024/01/30 01:48:43;;;;;;;21.63;17.13;;;;;;;;;;5009916;28;20045;-80
2024/01/30 01:51:09;;;;;;;25.38;18.30;;;;;;;;;;5027535;28;20041;-80
2024/01/30 01:53:35;;;;;;;27.92;18.08;;;;;;;;;;4993953;28;20453;-80
2024/01/30 01:56:01;;;;;;;30.23;18.73;;;;;;;;;;5026478;28;20056;-80
2024/01/30 01:58:31;;;;;;;26.45;17.33;;;;;;;;;;5027202;28;20053;-80
2024/01/30 02:00:58;;;;;;;28.98;16.48;;;;;;;;;;5037800;28;20045;-80
2024/01/30 02:03:24;;;;;;;27.88;19.20;;;;;;;;;;5027088;28;20041;-80
2024/01/30 02:05:51;;;;;;;26.20;17.88;;;;;;;;;;4996563;28;20063;-80
2024/01/30 02:08:17;;;;;;;22.98;16.88;;;;;;;;;;4986818;28;20369;-79
2024/01/30 02:10:43;;;;;;;22.33;16.90;;;;;;;;;;4987140;28;20057;-80
2024/01/30 02:13:09;;;;;;;25.33;18.13;;;;;;;;;;4986668;28;20073;-80
2024/01/30 02:15:35;;;;;;;25.27;17.60;;;;;;;;;;4988557;28;20050;-80
2024/01/30 02:18:01;;;;;;;25.15;17.63;;;;;;;;;;4986318;28;20042;-80
2024/01/30 02:20:29;;;;;;;26.52;16.45;;;;;;;;;;4992195;28;20065;-80
2024/01/30 02:22:56;;;;;;;24.88;16.98;;;;;;;;;;4986700;28;20043;-80
2024/01/30 02:25:30;;;;;;;24.70;18.30;;;;;;;;;;4988254;28;20049;-80
2024/01/30 02:27:57;;;;;;;25.42;16.65;;;;;;;;;;4988100;28;20429;-80
2024/01/30 02:30:22;;;;;;;24.45;17.83;;;;;;;;;;4986268;28;20051;-80
2024/01/30 02:32:50;;;;;;;22.70;16.92;;;;;;;;;;4984780;28;20121;-80
2024/01/30 02:35:16;;;;;;;26.25;17.63;;;;;;;;;;4986161;28;20053;-80
2024/01/30 02:37:42;;;;;;;23.77;17.58;;;;;;;;;;4989088;28;20500;-80
2024/01/30 02:40:08;;;;;;;25.85;17.65;;;;;;;;;;4986279;28;20090;-80
2024/01/30 02:42:34;;;;;;;24.77;17.58;;;;;;;;;;4988020;28;20050;-80
2024/01/30 02:45:00;;;;;;;25.98;17.85;;;;;;;;;;4986991;28;20054;-80
2024/01/30 02:47:26;;;;;;;24.38;17.20;;;;;;;;;;4987785;28;20089;-80
2024/01/30 02:49:52;;;;;;;26.50;17.35;;;;;;;;;;4995998;28;20523;-80
2024/01/30 02:52:19;;;;;;;26.40;18.00;;;;;;;;;;4988204;28;20046;-80
2024/01/30 02:54:45;;;;;;;27.20;18.50;;;;;;;;;;4970335;28;20181;-80
2024/01/30 02:57:11;;;;;;;24.17;18.30;;;;;;;;;;4987610;28;20042;-80
2024/01/30 02:59:37;;;;;;;25.38;17.27;;;;;;;;;;4985055;28;20141;-80
2024/01/30 03:02:03;;;;;;;26.75;16.92;;;;;;;;;;4988011;28;20054;-80
2024/01/30 03:04:30;;;;;;;24.70;17.15;;;;;;;;;;4985744;28;20050;-80
2024/01/30 03:06:56;;;;;;;26.67;18.40;;;;;;;;;;5020968;28;20054;-80
2024/01/30 03:09:21;;;;;;;24.50;18.08;;;;;;;;;;5028477;28;20056;-80
2024/01/30 03:11:47;;;;;;;25.20;17.35;;;;;;;;;;5033787;28;20072;-80
2024/01/30 03:14:13;;;;;;;23.90;17.10;;;;;;;;;;5040027;28;20052;-80
2024/01/30 03:16:39;;;;;;;24.38;17.65;;;;;;;;;;5006301;28;20049;-80
2024/01/30 03:19:09;;;;;;;23.83;17.52;;;;;;;;;;5012042;28;20052;-80
2024/01/30 03:21:35;;;;;;;25.58;18.13;;;;;;;;;;5011795;28;20065;-80
2024/01/30 03:24:01;;;;;;;27.67;17.70;;;;;;;;;;5030410;28;20045;-80
2024/01/30 03:26:27;;;;;;;24.30;17.38;;;;;;;;;;5011584;28;20120;-80
2024/01/30 03:28:53;;;;;;;23.80;17.50;;;;;;;;;;5029732;28;20053;-80
2024/01/30 03:31:19;;;;;;;25.77;17.40;;;;;;;;;;5030196;28;20041;-80
2024/01/30 03:33:45;;;;;;;24.38;17.27;;;;;;;;;;5030073;28;20444;-80
2024/01/30 03:36:11;;;;;;;23.25;16.02;;;;;;;;;;5029882;28;20486;-80
2024/01/30 03:38:37;;;;;;;23.63;17.00;;;;;;;;;;5029931;28;20064;-80
2024/01/30 03:41:03;;;;;;;24.85;17.00;;;;;;;;;;5029536;28;20073;-80
2024/01/30 03:43:29;;;;;;;27.95;17.85;;;;;;;;;;5011975;28;20137;-80
2024/01/30 03:45:55;;;;;;;23.70;18.13;;;;;;;;;;5014195;28;20064;-80
2024/01/30 03:48:21;;;;;;;23.63;17.10;;;;;;;;;;5029581;28;20063;-80
2024/01/30 03:50:47;;;;;;;27.67;17.70;;;;;;;;;;5029729;28;20040;-80
2024/01/30 03:53:13;;;;;;;27.35;18.05;;;;;;;;;;5029542;28;20576;-80
2024/01/30 03:55:39;;;;;;;24.27;17.38;;;;;;;;;;5000789;28;20041;-80
2024/01/30 03:58:05;;;;;;;26.00;18.75;;;;;;;;;;5029698;28;20128;-81
2024/01/30 04:00:31;;;;;;;23.73;17.38;;;;;;;;;;5010254;28;20048;-80
2024/01/30 04:02:57;;;;;;;25.63;18.23;;;;;;;;;;5029582;28;20045;-80
2024/01/30 04:05:23;;;;;;;27.15;18.00;;;;;;;;;;5034657;28;20109;-80
2024/01/30 04:07:49;;;;;;;27.35;19.02;;;;;;;;;;5011462;28;20068;-80
2024/01/30 04:10:15;;;;;;;28.00;18.02;;;;;;;;;;5010672;28;20124;-80
2024/01/30 04:12:42;;;;;;;24.88;17.88;;;;;;;;;;5010392;28;20048;-80
2024/01/30 04:15:08;;;;;;;26.33;17.50;;;;;;;;;;5010664;28;20061;-80
2024/01/30 04:17:34;;;;;;;26.13;18.35;;;;;;;;;;5010323;28;20057;-80
2024/01/30 04:20:00;;;;;;;26.92;18.10;;;;;;;;;;5001666;28;20430;-80
2024/01/30 04:22:26;;;;;;;25.08;17.05;;;;;;;;;;5008216;28;20052;-80
2024/01/30 04:24:52;;;;;;;25.50;17.73;;;;;;;;;;5005755;28;20147;-80
2024/01/30 04:27:18;;;;;;;25.15;17.58;;;;;;;;;;5010727;28;20091;-80
2024/01/30 04:29:44;;;;;;;26.85;17.25;;;;;;;;;;5012209;28;20045;-80
2024/01/30 04:32:10;;;;;;;24.40;17.15;;;;;;;;;;5029550;28;20052;-80
2024/01/30 04:34:37;;;;;;;25.95;17.10;;;;;;;;;;5028789;28;20049;-80
2024/01/30 04:37:03;;;;;;;24.45;16.80;;;;;;;;;;5010652;28;20049;-80
2024/01/30 04:39:29;;;;;;;23.42;16.52;;;;;;;;;;5029148;28;20479;-80
2024/01/30 04:41:55;;;;;;;23.42;16.98;;;;;;;;;;5028208;28;20061;-80
2024/01/30 04:44:21;;;;;;;24.58;16.33;;;;;;;;;;5028464;28;20405;-80
2024/01/30 04:46:47;;;;;;;22.67;15.73;;;;;;;;;;5010330;28;20459;-80
2024/01/30 04:49:13;;;;;;;22.80;16.75;;;;;;;;;;5028901;28;20097;-80
2024/01/30 04:51:39;;;;;;;23.60;15.85;;;;;;;;;;5016552;28;20084;-80
2024/01/30 04:54:05;;;;;;;25.98;16.92;;;;;;;;;;5016868;28;20052;-80
2024/01/30 04:56:31;;;;;;;20.60;15.93;;;;;;;;;;5028282;28;20038;-80
2024/01/30 04:58:57;;;;;;;24.20;16.85;;;;;;;;;;5027826;28;20494;-80
2024/01/30 05:01:23;;;;;;;23.27;16.42;;;;;;;;;;5027340;28;20052;-80
2024/01/30 05:03:49;;;;;;;25.88;17.05;;;;;;;;;;5010348;28;20052;-80
2024/01/30 05:06:24;;;;;;;23.70;16.38;;;;;;;;;;5025387;28;20053;-80
2024/01/30 05:08:50;;;;;;;26.55;16.70;;;;;;;;;;5012310;28;20041;-80
2024/01/30 05:11:16;;;;;;;22.65;16.42;;;;;;;;;;5031458;28;20351;-81
2024/01/30 05:13:42;;;;;;;26.83;17.38;;;;;;;;;;5008167;28;20052;-80
2024/01/30 05:16:08;;;;;;;25.27;16.80;;;;;;;;;;4992484;28;20045;-80
2024/01/30 05:18:34;;;;;;;23.15;17.17;;;;;;;;;;5028391;28;20538;-80
2024/01/30 05:21:00;;;;;;;23.65;17.00;;;;;;;;;;5010733;28;20610;-80
2024/01/30 05:23:26;;;;;;;23.58;16.92;;;;;;;;;;5027653;28;20526;-80
2024/01/30 05:25:52;;;;;;;23.92;16.00;;;;;;;;;;5009709;28;20137;-80
2024/01/30 05:28:18;;;;;;;21.70;16.08;;;;;;;;;;5009732;28;20860;-80
2024/01/30 05:30:44;;;;;;;23.92;16.50;;;;;;;;;;5009685;28;20060;-80
2024/01/30 05:33:11;;;;;;;24.27;16.25;;;;;;;;;;5019491;28;20515;-80
2024/01/30 05:35:38;;;;;;;25.23;15.90;;;;;;;;;;5010028;28;20045;-80
2024/01/30 05:38:04;;;;;;;23.30;16.30;;;;;;;;;;5027892;28;20053;-80
2024/01/30 05:40:30;;;;;;;22.45;15.20;;;;;;;;;;5027530;28;20041;-80
2024/01/30 05:43:00;;;;;;;21.02;15.60;;;;;;;;;;5026755;28;20049;-80
2024/01/30 05:45:26;;;;;;;23.90;15.57;;;;;;;;;;5026764;28;20072;-80
2024/01/30 05:47:52;;;;;;;21.58;15.57;;;;;;;;;;5009851;28;20079;-81
2024/01/30 05:50:19;;;;;;;24.27;15.15;;;;;;;;;;4992320;28;20052;-80
2024/01/30 05:52:45;;;;;;;20.80;15.35;;;;;;;;;;5036067;28;20037;-80
2024/01/30 05:55:12;;;;;;;22.77;14.73;;;;;;;;;;5027443;28;20051;-80
2024/01/30 05:57:38;;;;;;;20.33;15.43;;;;;;;;;;5008807;28;20047;-80
2024/01/30 06:00:05;;;;;;;21.77;15.25;;;;;;;;;;5027549;28;20534;-80
2024/01/30 06:02:31;;;;;;;22.05;15.38;;;;;;;;;;5027015;28;20041;-80
2024/01/30 06:04:59;;;;;;;21.30;14.95;;;;;;;;;;5028352;28;20049;-80
2024/01/30 06:07:25;;;;;;;21.10;15.73;;;;;;;;;;5027049;28;20111;-80
2024/01/30 06:09:51;;;;;;;21.40;15.52;;;;;;;;;;5026503;28;20046;-80
2024/01/30 06:12:17;;;;;;;22.33;15.30;;;;;;;;;;5026565;28;20136;-80
2024/01/30 06:14:43;;;;;;;21.08;14.88;;;;;;;;;;5026935;28;20049;-80
2024/01/30 06:17:09;;;;;;;21.60;15.10;;;;;;;;;;5008997;28;20052;-80
2024/01/30 06:19:35;;;;;;;20.05;14.52;;;;;;;;;;5027063;28;20060;-80
2024/01/30 06:22:02;;;;;;;21.38;14.95;;;;;;;;;;5008755;28;20063;-80
2024/01/30 06:24:28;;;;;;;20.70;14.98;;;;;;;;;;5013325;28;20037;-80
2024/01/30 06:26:54;;;;;;;20.40;14.43;;;;;;;;;;5025290;28;20052;-80
2024/01/30 06:29:20;;;;;;;19.40;13.45;;;;;;;;;;5026558;28;20841;-80
2024/01/30 06:31:46;;;;;;;22.70;14.05;;;;;;;;;;5026931;28;20045;-80
2024/01/30 06:34:13;;;;;;;19.25;14.00;;;;;;;;;;5026664;28;20482;-80
2024/01/30 06:36:39;;;;;;;21.63;14.60;;;;;;;;;;5027072;28;20049;-80
2024/01/30 06:39:05;;;;;;;19.35;13.43;;;;;;;;;;5026273;28;20547;-80
2024/01/30 06:41:31;;;;;;;21.17;14.45;;;;;;;;;;5027509;28;20053;-81
2024/01/30 06:43:57;;;;;;;22.55;15.77;;;;;;;;;;5032171;28;20046;-80
2024/01/30 06:46:23;;;;;;;21.10;14.55;;;;;;;;;;5029963;28;20045;-80
2024/01/30 06:48:49;;;;;;;20.13;14.35;;;;;;;;;;5031350;28;20129;-79
2024/01/30 06:51:15;;;;;;;20.83;13.43;;;;;;;;;;5029210;28;20045;-81
2024/01/30 06:53:41;;;;;;;18.60;13.95;;;;;;;;;;5011324;28;20474;-79
2024/01/30 06:56:07;;;;;;;20.88;14.00;;;;;;;;;;5012457;28;20084;-80
2024/01/30 06:58:33;;;;;;;19.10;13.27;;;;;;;;;;5012236;28;20073;-78
2024/01/30 07:00:59;;;;;;;18.77;13.85;;;;;;;;;;5028488;28;20126;-78
2024/01/30 07:03:25;;;;;;;18.00;13.65;;;;;;;;;;5025408;28;20453;-79
2024/01/30 07:05:51;;;;;;;19.50;13.90;;;;;;;;;;5027461;28;20053;-78
2024/01/30 07:08:17;;;;;;;21.02;14.48;;;;;;;;;;5042000;28;20064;-79
2024/01/30 07:10:44;;;;;;;19.95;14.32;;;;;;;;;;5044641;28;20045;-79
2024/01/30 07:13:16;;;;;;;21.63;15.23;;;;;;;;;;5013787;28;20496;-79
2024/01/30 07:15:42;;;;;;;19.90;14.13;;;;;;;;;;5013546;28;20084;-79
2024/01/30 07:18:09;;;;;;;16.52;13.30;;;;;;;;;;5030297;28;20358;-79
2024/01/30 07:20:35;;;;;;;26.83;19.15;;;;;;;;;;5012416;28;20103;-79
2024/01/30 07:23:03;;;;;;;25.33;17.33;;;;;;;;;;5031577;28;20069;-79
2024/01/30 07:25:29;;;;;;;19.13;14.43;;;;;;;;;;5006586;28;20174;-79
2024/01/30 07:27:55;;;;;;;20.45;14.45;;;;;;;;;;5030002;28;20137;-79
2024/01/30 07:30:23;;;;;;;19.25;14.27;;;;;;;;;;5031041;28;20407;-80
2024/01/30 07:32:50;;;;;;;21.40;14.80;;;;;;;;;;5030068;28;20060;-79
2024/01/30 07:35:16;;;;;;;21.00;14.07;;;;;;;;;;5029822;28;20084;-79
2024/01/30 07:37:42;;;;;;;20.23;14.27;;;;;;;;;;5009860;28;20044;-78
2024/01/30 07:40:08;;;;;;;19.20;13.93;;;;;;;;;;5035584;28;20419;-78
2024/01/30 07:42:35;;;;;;;18.33;13.80;;;;;;;;;;5013561;28;20411;-78
2024/01/30 07:45:01;;;;;;;18.10;13.52;;;;;;;;;;5029997;28;20053;-79
2024/01/30 07:47:27;;;;;;;20.55;13.80;;;;;;;;;;5012982;28;20057;-78
2024/01/30 07:49:54;;;;;;;18.42;13.80;;;;;;;;;;5030566;28;20046;-79
2024/01/30 07:52:20;;;;;;;19.35;14.05;;;;;;;;;;5011198;28;20053;-79
2024/01/30 07:54:46;;;;;;;21.85;14.85;;;;;;;;;;5030854;28;20184;-79
2024/01/30 07:57:12;;;;;;;18.27;13.65;;;;;;;;;;5049448;28;20098;-79
2024/01/30 07:59:38;;;;;;;18.73;13.68;;;;;;;;;;5050521;28;20041;-79
2024/01/30 08:02:04;;;;;;;22.00;14.10;;;;;;;;;;5050413;28;20439;-79
2024/01/30 08:04:30;;;;;;;17.08;13.32;;;;;;;;;;5049935;28;20411;-79
2024/01/30 08:06:56;;;;;;;18.80;13.63;;;;;;;;;;5041826;28;20534;-79
2024/01/30 08:09:22;;;;;;;17.13;12.02;;;;;;;;;;5030265;28;20081;-79
2024/01/30 08:11:48;;;;;;;18.10;13.68;;;;;;;;;;5036611;28;20095;-79
2024/01/30 08:14:14;;;;;;;18.55;13.27;;;;;;;;;;5036582;28;20045;-79
2024/01/30 08:16:40;;;;;;;17.30;12.20;;;;;;;;;;5012284;28;20111;-80
2024/01/30 08:19:06;;;;;;;20.10;12.93;;;;;;;;;;5010943;28;20060;-79
2024/01/30 08:21:36;;;;;;;17.95;12.80;;;;;;;;;;5012171;28;20056;-80
2024/01/30 08:24:04;;;;;;;17.15;12.52;;;;;;;;;;5012435;28;20049;-80
2024/01/30 08:26:30;;;;;;;16.08;12.48;;;;;;;;;;5015895;28;20044;-79
2024/01/30 08:28:56;;;;;;;16.77;11.45;;;;;;;;;;5030722;28;20075;-79
2024/01/30 08:31:22;;;;;;;20.13;13.05;;;;;;;;;;5024543;28;20407;-81
2024/01/30 08:33:48;;;;;;;16.38;11.27;;;;;;;;;;5029292;28;20053;-80
2024/01/30 08:36:15;;;;;;;18.83;12.95;;;;;;;;;;5029775;28;20045;-81
2024/01/30 08:38:40;;;;;;;16.02;10.95;;;;;;;;;;5011742;28;20168;-80
2024/01/30 08:41:08;;;;;;;15.95;11.50;;;;;;;;;;5011374;28;20140;-80
2024/01/30 08:43:34;;;;;;;18.45;11.77;;;;;;;;;;5013519;28;20779;-80
2024/01/30 08:46:00;;;;;;;17.05;11.55;;;;;;;;;;5030432;28;20169;-80
2024/01/30 08:48:26;;;;;;;19.98;11.85;;;;;;;;;;5011735;28;20132;-80
2024/01/30 08:50:52;;;;;;;15.65;12.02;;;;;;;;;;5029838;28;20045;-80
2024/01/30 08:53:18;;;;;;;27.27;19.65;;;;;;;;;;5030304;28;20045;-80
2024/01/30 08:55:44;;;;;;;25.27;16.27;;;;;;;;;;5029320;28;20045;-80
2024/01/30 08:58:10;;;;;;;19.20;13.75;;;;;;;;;;4995943;28;20041;-80
2024/01/30 09:00:37;;;;;;;16.30;13.00;;;;;;;;;;5041475;28;20182;-81
2024/01/30 09:03:03;;;;;;;20.13;13.02;;;;;;;;;;5050280;28;20052;-80
2024/01/30 09:05:29;;;;;;;18.63;12.25;;;;;;;;;;5048733;28;20052;-80
2024/01/30 09:07:55;;;;;;;16.33;11.30;;;;;;;;;;5049469;28;20433;-80
2024/01/30 09:10:21;;;;;;;14.65;11.23;;;;;;;;;;5048600;28;20060;-80
2024/01/30 09:12:49;;;;;;;15.18;10.73;;;;;;;;;;5047147;28;20044;-78
2024/01/30 09:15:15;;;;;;;13.82;11.00;;;;;;;;;;5048458;28;20049;-80
2024/01/30 09:17:41;;;;;;;15.10;11.10;;;;;;;;;;5031457;28;20060;-80
2024/01/30 09:20:08;;;;;;;15.15;11.40;;;;;;;;;;5049547;28;20052;-80
2024/01/30 09:22:34;;;;;;;15.98;11.15;;;;;;;;;;5049709;28;20058;-80
2024/01/30 09:25:06;;;;;;;16.23;10.88;;;;;;;;;;5146565;27;1238122;-79
2024/01/30 09:27:32;;;;;;;16.13;11.95;;;;;;;;;;5149581;27;20103;-79
2024/01/30 09:29:58;;;;;;;19.45;11.25;;;;;;;;;;5149263;27;20035;-79
2024/01/30 09:32:24;;;;;;;13.50;10.32;;;;;;;;;;5139549;27;20087;-78
2024/01/30 09:34:50;;;;;;;13.30;10.40;;;;;;;;;;5149348;27;20047;-78
2024/01/30 09:37:17;;;;;;;14.73;10.80;;;;;;;;;;5150059;27;20050;-78
2024/01/30 09:39:43;;;;;;;12.15;9.98;;;;;;;;;;5168128;27;20049;-78
2024/01/30 09:42:42;;;;;;;17.58;10.75;;;;;;;;;;5136911;27;20550;-78
2024/01/30 09:45:09;;;;;;;12.45;10.63;;;;;;;;;;5090928;27;20054;-79
2024/01/30 09:47:45;;;;;;;15.25;11.32;;;;;;;;;;5129181;27;20039;-78
2024/01/30 09:50:11;;;;;;;14.80;10.90;;;;;;;;;;5131718;27;20095;-79
2024/01/30 09:52:38;;;;;;;15.02;10.85;;;;;;;;;;5149529;27;20103;-78
2024/01/30 09:55:04;;;;;;;18.40;11.00;;;;;;;;;;5149636;27;20458;-79
2024/01/30 09:57:30;;;;;;;14.07;10.43;;;;;;;;;;5149153;27;20038;-78
2024/01/30 09:59:56;;;;;;;13.95;10.45;;;;;;;;;;5148901;27;20095;-78
2024/01/30 10:02:23;;;;;;;13.73;10.82;;;;;;;;;;5131942;27;20038;-78
2024/01/30 10:04:50;;;;;;;14.32;10.50;;;;;;;;;;5148265;27;20050;-79
2024/01/30 10:07:16;;;;;;;12.55;10.73;;;;;;;;;;5127409;27;20046;-79
2024/01/30 10:09:42;;;;;;;16.83;11.98;;;;;;;;;;5110344;27;20507;-78
2024/01/30 10:12:09;;;;;;;14.57;10.70;;;;;;;;;;5111228;27;20047;-78
2024/01/30 10:14:38;;;;;;;17.48;11.13;;;;;;;;;;5128271;27;20479;-79
2024/01/30 10:17:05;;;;;;;17.15;11.65;;;;;;;;;;5127859;27;20092;-79
2024/01/30 10:19:31;;;;;;;14.73;11.15;;;;;;;;;;5135589;27;20047;-79
2024/01/30 10:21:57;;;;;;;15.52;11.10;;;;;;;;;;5131205;27;20047;-79
2024/01/30 10:24:29;;;;;;;12.95;10.80;;;;;;;;;;5126979;27;20059;-79
2024/01/30 10:26:55;;;;;;;15.30;10.88;;;;;;;;;;5110115;27;20373;-79
2024/01/30 10:29:21;;;;;;;13.10;10.32;;;;;;;;;;5127306;27;20049;-79
2024/01/30 10:31:57;;;;;;;13.88;10.48;;;;;;;;;;5126672;27;20104;-79
2024/01/30 10:34:23;;;;;;;13.40;10.18;;;;;;;;;;5133217;27;20034;-79
2024/01/30 10:36:51;;;;;;;15.25;10.07;;;;;;;;;;5114908;27;20771;-79
2024/01/30 10:39:17;;;;;;;15.95;10.10;;;;;;;;;;5095556;27;20452;-79
2024/01/30 10:41:45;;;;;;;13.70;10.38;;;;;;;;;;5112895;27;20039;-79
2024/01/30 10:44:11;;;;;;;17.65;10.88;;;;;;;;;;5112645;27;20492;-80
2024/01/30 10:46:42;;;;;;;14.35;10.25;;;;;;;;;;5130172;27;20043;-80
2024/01/30 10:49:09;;;;;;;14.13;10.88;;;;;;;;;;5113466;27;20035;-79
2024/01/30 10:51:37;;;;;;;11.85;9.90;;;;;;;;;;5096061;27;20374;-80
2024/01/30 10:54:04;;;;;;;13.25;10.10;;;;;;;;;;5131251;27;20042;-79
2024/01/30 10:56:30;;;;;;;15.40;10.05;;;;;;;;;;5112586;27;20039;-80
2024/01/30 10:58:56;;;;;;;13.98;10.45;;;;;;;;;;5113007;27;20051;-79
2024/01/30 11:01:22;;;;;;;13.38;10.40;;;;;;;;;;5095886;27;20046;-80
2024/01/30 11:03:52;;;;;;;14.68;9.95;;;;;;;;;;5095794;27;20054;-79
2024/01/30 11:06:18;;;;;;;13.98;10.68;;;;;;;;;;5112424;27;20074;-79
2024/01/30 11:09:00;;;;;;;13.63;10.27;;;;;;;;;;5112444;27;20047;-79
2024/01/30 11:11:26;;;;;;;16.63;10.63;;;;;;;;;;5118348;27;20035;-80
2024/01/30 11:13:52;;;;;;;14.43;11.10;;;;;;;;;;5133166;27;20046;-80
2024/01/30 11:16:20;;;;;;;13.85;10.20;;;;;;;;;;5149945;27;20049;-79
2024/01/30 11:18:51;;;;;;;16.95;12.05;;;;;;;;;;5096066;27;20684;-80
2024/01/30 11:21:17;;;;;;;16.10;11.10;;;;;;;;;;5112649;27;20086;-80
2024/01/30 11:23:43;;;;;;;14.57;10.73;;;10.10;99.90;;;;;;5119746;27;20055;-81
2024/01/30 11:26:11;;;;;;;19.75;12.70;;;10.10;99.90;;;;;;5126593;27;20058;-80
2024/01/30 11:28:37;;;;;;;18.67;11.48;;;10.00;99.90;;;;;;5116354;27;20123;-80
2024/01/30 11:31:07;;;;;;;17.75;12.80;;;10.00;99.90;;;;;;5113525;27;20043;-80
2024/01/30 11:33:34;;;;;;;13.25;10.85;;;10.00;99.90;;;;;;5112544;27;20100;-80
2024/01/30 11:36:00;;;;;;;17.88;11.52;;;10.10;99.90;;;;;;5109309;27;20062;-80
2024/01/30 11:38:27;;;;;;;18.67;11.32;;;10.20;99.90;;;;;;5109455;27;20048;-81
2024/01/30 11:40:55;;;;;;;16.95;11.32;;;10.60;99.90;;;;;;5118882;27;20150;-80
2024/01/30 11:43:20;;;;;;;17.13;11.63;;;10.20;99.90;;;;;;5129234;27;20054;-80
2024/01/30 11:45:46;;;;;;;18.80;11.88;;;10.20;99.90;;;;;;5122381;27;20027;-81
2024/01/30 11:48:12;;;;;;;16.27;11.20;;;10.20;99.90;;;;;;5092443;28;20809;-81
2024/01/30 11:50:40;;;;;;;17.40;11.77;;;10.30;99.90;;;;;;5115548;27;20039;-80
2024/01/30 11:53:06;;;;;;;15.73;10.85;;;10.30;99.90;;;;;;5092145;28;20434;-80
2024/01/30 11:55:33;;;;;;;13.57;11.25;;;10.50;99.90;;;;;;5118474;27;20067;-81
2024/01/30 11:57:58;;;;;;;16.13;11.55;;;10.60;99.90;;;;;;5111024;27;20055;-80
2024/01/30 12:00:25;;;;;;;15.25;11.00;;;10.80;99.90;;;;;;5128974;27;20039;-81
2024/01/30 12:02:55;;;;;;;15.25;11.30;;;10.80;99.90;;;;;;5130086;27;20092;-81
2024/01/30 12:05:22;;;;;;;12.75;10.43;;;10.90;99.90;;;;;;5129052;27;20468;-79
2024/01/30 12:07:48;;;;;;;13.95;10.77;;;11.00;99.90;;;;;;5126706;27;20055;-80
2024/01/30 12:10:14;;;;;;;15.50;10.45;;;11.00;99.90;;;;;;5121642;27;20047;-80
2024/01/30 12:12:42;;;;;;;14.57;10.48;;;11.10;99.90;;;;;;5109797;27;20489;-79
2024/01/30 12:15:08;;;;;;;13.98;9.80;;;11.20;99.90;;;;;;5113862;27;20054;-79
2024/01/30 12:17:34;;;;;;;11.23;10.00;;;11.10;99.90;;;;;;5107814;27;20142;-80
2024/01/30 12:20:07;;;;;;;15.02;10.40;;;11.10;99.90;;;;;;5090888;28;20123;-81
2024/01/30 12:22:38;;;;;;;15.50;11.60;;;10.70;99.90;;;;;;5094048;27;20052;-81
2024/01/30 12:25:14;;;;;;;16.45;10.88;;;11.10;99.90;;;;;;5123421;27;20059;-81
2024/01/30 12:27:44;;;;;;;18.45;10.52;;;11.10;99.90;;;;;;5110973;27;20824;-79
2024/01/30 12:30:11;;;;;;;14.05;9.30;;;11.00;99.90;;;;;;5127987;27;20050;-79
2024/01/30 12:32:42;;;;;;;13.80;9.60;;;10.90;99.90;;;;;;5129786;27;20110;-79
2024/01/30 12:35:18;;;;;;;18.98;9.20;;;10.80;99.90;;;;;;5128667;27;20496;-79
2024/01/30 12:37:45;;;;;;;13.20;8.75;;;10.70;99.90;;;;;;5129672;27;20035;-79
2024/01/30 12:40:14;;;;;;;14.07;7.40;;;10.70;99.90;;;;;;5118565;27;20476;-79
2024/01/30 12:42:41;;;;;;;13.68;6.00;;;10.70;99.90;;;;;;5123263;27;20515;-80
2024/01/30 12:45:07;;;;;;;8.70;5.60;;;10.70;99.90;;;;;;5128225;27;20130;-80
2024/01/30 12:47:33;;;;;;;9.95;5.53;;;10.60;99.90;;;;;;5129223;27;20043;-80
2024/01/30 12:49:59;;;;;;;9.63;5.00;;;10.50;99.90;;;;;;5129455;27;20088;-80
2024/01/30 12:52:25;;;;;;;7.35;4.68;;;10.50;99.90;;;;;;5129328;27;20465;-80
2024/01/30 12:54:51;;;;;;;7.00;4.97;;;10.40;99.90;;;;;;5128913;27;20154;-79
2024/01/30 12:57:17;;;;;;;7.15;4.65;;;10.40;99.90;;;;;;5126227;27;20042;-80
2024/01/30 12:59:45;;;;;;;6.72;4.15;;;10.30;99.90;;;;;;5124443;27;20158;-80
2024/01/30 13:02:12;;;;;;;7.57;3.90;;;10.30;99.90;;;;;;5110960;27;20043;-81
2024/01/30 13:04:37;;;;;;;9.32;3.72;;;10.30;99.90;;;;;;5127101;27;20051;-81
2024/01/30 13:07:03;;;;;;;6.70;3.10;;;10.30;99.90;;;;;;5129553;27;20643;-81
2024/01/30 13:09:31;;;;;;;5.28;3.05;;;10.20;99.90;;;;;;5128739;27;20069;-80
2024/01/30 13:11:57;;;;;;;3.88;2.90;;;10.30;99.90;;;;;;5129096;27;20146;-80
2024/01/30 13:14:23;;;;;;;5.88;3.28;;;10.30;99.90;;;;;;5122640;27;20461;-80
2024/01/30 13:16:49;;;;;;;5.28;2.90;;;10.20;99.90;;;;;;5107088;28;20134;-81
2024/01/30 13:19:14;;;;;;;5.18;3.17;;;10.20;99.90;;;;;;5090116;28;20048;-80
2024/01/30 13:21:40;;;;;;;4.78;3.25;;;10.20;99.90;;;;;;5108822;28;20043;-80
2024/01/30 13:24:06;;;;;;;7.38;4.35;;;10.20;99.90;;;;;;5118517;28;20457;-81
2024/01/30 13:26:32;;;;;;;7.00;4.30;;;10.10;99.90;;;;;;5110413;28;20374;-80
2024/01/30 13:28:58;;;;;;;8.27;3.50;;;10.10;99.90;;;;;;5109939;28;20446;-80
2024/01/30 13:31:24;;;;;;;6.15;4.07;;;10.60;99.90;;;;;;5128530;27;20036;-80
2024/01/30 13:33:50;;;;;;;5.57;3.40;;;9.90;99.90;;;;;;5093717;28;20055;-80
2024/01/30 13:36:16;;;;;;;6.65;3.75;;;9.90;99.90;;;;;;5128295;28;20039;-80
2024/01/30 13:38:41;;;;;;;6.72;3.47;;;9.80;99.90;;;;;;5129219;28;20051;-80
2024/01/30 13:41:07;;;;;;;4.78;2.72;;;9.80;99.90;;;;;;5139541;27;20166;-80
2024/01/30 13:43:33;;;;;;;3.15;2.40;;;9.80;99.90;;;;;;5149027;27;20089;-80
2024/01/30 13:45:59;;;;;;;4.50;3.13;;;9.70;99.90;;;;;;5130542;27;20050;-80
2024/01/30 13:48:24;;;;;;;6.20;2.45;;;9.60;99.90;;;;;;5130853;27;20189;-79
2024/01/30 13:50:50;;;;;;;3.25;2.30;;;9.60;99.90;;;;;;5149152;27;20177;-80
2024/01/30 13:53:16;;;;;;;5.35;2.40;;;9.60;99.90;;;;;;5149244;27;20452;-80